sensor_id;sensor_type;location;lat;lon;timestamp;temperature;humidity
71668;DHT22;59504;54.806;9.640;2022-11-15T00:00:30;7.10;82.10
71668;DHT22;59504;54.806;9.640;2022-11-15T00:02:31;7.10;82.00
71668;DHT22;59504;54.806;9.640;2022-11-15T00:04:31;7.10;81.90
71668;DHT22;59504;54.806;9.640;2022-11-15T00:06:32;7.10;81.80
71668;DHT22;59504;54.806;9.640;2022-11-15T00:08:33;7.10;81.80
71668;DHT22;59504;54.806;9.640;2022-11-15T00:10:34;7.10;81.80
71668;DHT22;59504;54.806;9.640;2022-11-15T00:12:34;7.10;81.70
71668;DHT22;59504;54.806;9.640;2022-11-15T00:14:35;7.10;81.90
71668;DHT22;59504;54.806;9.640;2022-11-15T00:16:36;7.20;82.00
71668;DHT22;59504;54.806;9.640;2022-11-15T00:18:38;7.10;82.00
71668;DHT22;59504;54.806;9.640;2022-11-15T00:20:39;7.10;81.80
71668;DHT22;59504;54.806;9.640;2022-11-15T00:22:40;7.20;82.10
71668;DHT22;59504;54.806;9.640;2022-11-15T00:24:40;7.10;82.50
71668;DHT22;59504;54.806;9.640;2022-11-15T00:26:41;7.20;82.70
71668;DHT22;59504;54.806;9.640;2022-11-15T00:28:42;7.20;82.60
71668;DHT22;59504;54.806;9.640;2022-11-15T00:30:42;7.10;82.70
71668;DHT22;59504;54.806;9.640;2022-11-15T00:32:43;7.10;83.30
71668;DHT22;59504;54.806;9.640;2022-11-15T00:34:44;7.10;83.50
71668;DHT22;59504;54.806;9.640;2022-11-15T00:36:44;7.00;83.40
71668;DHT22;59504;54.806;9.640;2022-11-15T00:38:45;7.00;83.60
71668;DHT22;59504;54.806;9.640;2022-11-15T00:40:46;7.00;83.50
71668;DHT22;59504;54.806;9.640;2022-11-15T00:42:46;7.00;83.20
71668;DHT22;59504;54.806;9.640;2022-11-15T00:44:47;7.10;83.00
71668;DHT22;59504;54.806;9.640;2022-11-15T00:47:08;7.10;83.20
71668;DHT22;59504;54.806;9.640;2022-11-15T00:49:08;7.00;83.40
71668;DHT22;59504;54.806;9.640;2022-11-15T00:51:29;7.10;83.40
71668;DHT22;59504;54.806;9.640;2022-11-15T00:53:50;7.10;83.10
71668;DHT22;59504;54.806;9.640;2022-11-15T00:55:51;7.10;83.00
71668;DHT22;59504;54.806;9.640;2022-11-15T00:57:51;7.10;82.80
71668;DHT22;59504;54.806;9.640;2022-11-15T00:59:52;7.10;82.70
71668;DHT22;59504;54.806;9.640;2022-11-15T01:01:56;7.10;82.70
71668;DHT22;59504;54.806;9.640;2022-11-15T01:04:17;7.10;82.60
71668;DHT22;59504;54.806;9.640;2022-11-15T01:06:36;7.20;82.70
71668;DHT22;59504;54.806;9.640;2022-11-15T01:08:56;7.10;82.50
71668;DHT22;59504;54.806;9.640;2022-11-15T01:11:16;7.10;82.50
71668;DHT22;59504;54.806;9.640;2022-11-15T01:13:38;7.20;82.50
71668;DHT22;59504;54.806;9.640;2022-11-15T01:16:05;7.20;82.50
71668;DHT22;59504;54.806;9.640;2022-11-15T01:18:26;7.30;82.40
71668;DHT22;59504;54.806;9.640;2022-11-15T01:20:46;7.20;82.50
71668;DHT22;59504;54.806;9.640;2022-11-15T01:23:07;7.20;82.50
71668;DHT22;59504;54.806;9.640;2022-11-15T01:25:28;7.20;82.40
71668;DHT22;59504;54.806;9.640;2022-11-15T01:27:48;7.20;82.40
71668;DHT22;59504;54.806;9.640;2022-11-15T01:30:09;7.10;82.30
71668;DHT22;59504;54.806;9.640;2022-11-15T01:32:30;7.10;82.20
71668;DHT22;59504;54.806;9.640;2022-11-15T01:34:50;7.10;82.20
71668;DHT22;59504;54.806;9.640;2022-11-15T01:37:11;7.30;82.40
71668;DHT22;59504;54.806;9.640;2022-11-15T01:39:12;7.10;82.20
71668;DHT22;59504;54.806;9.640;2022-11-15T01:41:21;7.10;82.20
71668;DHT22;59504;54.806;9.640;2022-11-15T01:43:42;7.10;82.30
71668;DHT22;59504;54.806;9.640;2022-11-15T01:48:31;7.10;82.30
71668;DHT22;59504;54.806;9.640;2022-11-15T01:50:33;7.20;82.30
71668;DHT22;59504;54.806;9.640;2022-11-15T01:52:34;7.10;82.20
71668;DHT22;59504;54.806;9.640;2022-11-15T01:55:09;7.10;82.20
71668;DHT22;59504;54.806;9.640;2022-11-15T01:57:12;7.10;82.20
71668;DHT22;59504;54.806;9.640;2022-11-15T01:59:33;7.10;82.20
71668;DHT22;59504;54.806;9.640;2022-11-15T02:01:54;7.10;82.20
71668;DHT22;59504;54.806;9.640;2022-11-15T02:04:25;7.10;82.20
71668;DHT22;59504;54.806;9.640;2022-11-15T02:06:48;7.10;82.20
71668;DHT22;59504;54.806;9.640;2022-11-15T02:09:09;7.20;82.20
71668;DHT22;59504;54.806;9.640;2022-11-15T02:11:31;7.10;82.10
71668;DHT22;59504;54.806;9.640;2022-11-15T02:13:52;7.10;82.10
71668;DHT22;59504;54.806;9.640;2022-11-15T02:16:26;7.20;82.10
71668;DHT22;59504;54.806;9.640;2022-11-15T02:18:34;7.10;82.10
71668;DHT22;59504;54.806;9.640;2022-11-15T02:20:49;7.10;82.20
71668;DHT22;59504;54.806;9.640;2022-11-15T02:34:55;7.00;82.80
71668;DHT22;59504;54.806;9.640;2022-11-15T02:37:43;7.10;82.20
71668;DHT22;59504;54.806;9.640;2022-11-15T02:40:34;7.10;82.20
71668;DHT22;59504;54.806;9.640;2022-11-15T02:43:03;7.00;82.10
71668;DHT22;59504;54.806;9.640;2022-11-15T02:45:51;7.00;82.10
71668;DHT22;59504;54.806;9.640;2022-11-15T02:48:15;7.00;82.10
71668;DHT22;59504;54.806;9.640;2022-11-15T02:50:36;7.00;82.10
71668;DHT22;59504;54.806;9.640;2022-11-15T02:52:57;7.00;82.10
71668;DHT22;59504;54.806;9.640;2022-11-15T02:57:51;7.00;82.40
71668;DHT22;59504;54.806;9.640;2022-11-15T03:00:05;7.00;82.50
71668;DHT22;59504;54.806;9.640;2022-11-15T03:02:31;7.00;82.60
71668;DHT22;59504;54.806;9.640;2022-11-15T03:04:45;7.00;82.70
71668;DHT22;59504;54.806;9.640;2022-11-15T03:06:59;7.10;82.80
71668;DHT22;59504;54.806;9.640;2022-11-15T03:11:11;7.10;82.90
71668;DHT22;59504;54.806;9.640;2022-11-15T03:15:32;7.10;83.00
71668;DHT22;59504;54.806;9.640;2022-11-15T03:17:47;7.10;83.00
71668;DHT22;59504;54.806;9.640;2022-11-15T03:20:07;7.20;83.00
71668;DHT22;59504;54.806;9.640;2022-11-15T03:22:12;7.20;83.10
71668;DHT22;59504;54.806;9.640;2022-11-15T03:24:16;7.20;83.00
71668;DHT22;59504;54.806;9.640;2022-11-15T03:26:20;7.30;83.10
71668;DHT22;59504;54.806;9.640;2022-11-15T03:28:27;7.30;83.00
71668;DHT22;59504;54.806;9.640;2022-11-15T03:30:35;7.40;83.10
71668;DHT22;59504;54.806;9.640;2022-11-15T03:32:46;7.30;83.00
71668;DHT22;59504;54.806;9.640;2022-11-15T03:35:11;7.30;82.90
71668;DHT22;59504;54.806;9.640;2022-11-15T03:40:09;7.40;82.80
71668;DHT22;59504;54.806;9.640;2022-11-15T03:42:28;7.40;82.60
71668;DHT22;59504;54.806;9.640;2022-11-15T03:47:26;7.50;82.60
71668;DHT22;59504;54.806;9.640;2022-11-15T03:49:55;7.50;82.60
71668;DHT22;59504;54.806;9.640;2022-11-15T03:52:20;7.40;82.40
71668;DHT22;59504;54.806;9.640;2022-11-15T03:54:53;7.40;82.20
71668;DHT22;59504;54.806;9.640;2022-11-15T03:57:14;7.40;82.10
71668;DHT22;59504;54.806;9.640;2022-11-15T03:59:34;7.50;82.00
71668;DHT22;59504;54.806;9.640;2022-11-15T04:01:55;7.60;82.00
71668;DHT22;59504;54.806;9.640;2022-11-15T04:04:16;7.40;81.70
71668;DHT22;59504;54.806;9.640;2022-11-15T04:06:36;7.40;81.40
71668;DHT22;59504;54.806;9.640;2022-11-15T04:08:57;7.30;81.20
71668;DHT22;59504;54.806;9.640;2022-11-15T04:10:58;7.40;81.20
71668;DHT22;59504;54.806;9.640;2022-11-15T04:12:59;7.30;81.10
71668;DHT22;59504;54.806;9.640;2022-11-15T04:15:02;7.30;81.10
71668;DHT22;59504;54.806;9.640;2022-11-15T04:17:09;7.20;81.10
71668;DHT22;59504;54.806;9.640;2022-11-15T04:19:11;7.40;81.20
71668;DHT22;59504;54.806;9.640;2022-11-15T04:21:31;7.20;81.10
71668;DHT22;59504;54.806;9.640;2022-11-15T04:24:10;7.30;81.10
71668;DHT22;59504;54.806;9.640;2022-11-15T04:26:33;7.10;80.90
71668;DHT22;59504;54.806;9.640;2022-11-15T04:28:54;7.10;80.90
71668;DHT22;59504;54.806;9.640;2022-11-15T04:31:33;7.10;80.80
71668;DHT22;59504;54.806;9.640;2022-11-15T04:33:54;7.10;80.80
71668;DHT22;59504;54.806;9.640;2022-11-15T04:36:15;7.00;81.50
71668;DHT22;59504;54.806;9.640;2022-11-15T04:38:54;7.00;80.70
71668;DHT22;59504;54.806;9.640;2022-11-15T04:40:55;7.00;80.60
71668;DHT22;59504;54.806;9.640;2022-11-15T04:42:57;6.90;80.50
71668;DHT22;59504;54.806;9.640;2022-11-15T04:45:17;6.90;80.40
71668;DHT22;59504;54.806;9.640;2022-11-15T04:47:38;6.90;80.40
71668;DHT22;59504;54.806;9.640;2022-11-15T04:49:39;7.00;80.50
71668;DHT22;59504;54.806;9.640;2022-11-15T04:51:39;6.80;80.40
71668;DHT22;59504;54.806;9.640;2022-11-15T04:54:00;6.80;80.50
71668;DHT22;59504;54.806;9.640;2022-11-15T04:56:21;6.80;80.50
71668;DHT22;59504;54.806;9.640;2022-11-15T04:58:41;6.70;80.40
71668;DHT22;59504;54.806;9.640;2022-11-15T05:01:10;6.70;80.40
71668;DHT22;59504;54.806;9.640;2022-11-15T05:03:31;6.80;80.40
71668;DHT22;59504;54.806;9.640;2022-11-15T05:06:10;6.60;80.60
71668;DHT22;59504;54.806;9.640;2022-11-15T05:08:30;6.60;80.20
71668;DHT22;59504;54.806;9.640;2022-11-15T05:10:51;6.60;80.20
71668;DHT22;59504;54.806;9.640;2022-11-15T05:13:12;6.50;80.20
71668;DHT22;59504;54.806;9.640;2022-11-15T05:15:32;6.50;80.20
71668;DHT22;59504;54.806;9.640;2022-11-15T05:17:58;6.50;80.20
71668;DHT22;59504;54.806;9.640;2022-11-15T05:20:19;6.50;80.10
71668;DHT22;59504;54.806;9.640;2022-11-15T05:22:37;6.40;80.10
71668;DHT22;59504;54.806;9.640;2022-11-15T05:24:38;6.40;80.10
71668;DHT22;59504;54.806;9.640;2022-11-15T05:26:40;6.40;80.10
71668;DHT22;59504;54.806;9.640;2022-11-15T05:28:41;6.30;80.00
71668;DHT22;59504;54.806;9.640;2022-11-15T05:30:41;6.30;80.00
71668;DHT22;59504;54.806;9.640;2022-11-15T05:32:43;6.30;80.00
71668;DHT22;59504;54.806;9.640;2022-11-15T05:34:44;6.30;80.00
71668;DHT22;59504;54.806;9.640;2022-11-15T05:36:45;6.30;80.00
71668;DHT22;59504;54.806;9.640;2022-11-15T05:38:49;6.20;79.90
71668;DHT22;59504;54.806;9.640;2022-11-15T05:40:50;6.20;79.90
71668;DHT22;59504;54.806;9.640;2022-11-15T05:42:51;6.20;80.10
71668;DHT22;59504;54.806;9.640;2022-11-15T05:44:52;6.20;79.80
71668;DHT22;59504;54.806;9.640;2022-11-15T05:46:53;6.10;79.80
71668;DHT22;59504;54.806;9.640;2022-11-15T05:48:56;6.10;79.80
71668;DHT22;59504;54.806;9.640;2022-11-15T05:50:58;6.10;79.80
71668;DHT22;59504;54.806;9.640;2022-11-15T05:53:00;6.10;79.80
71668;DHT22;59504;54.806;9.640;2022-11-15T05:55:02;6.10;79.70
71668;DHT22;59504;54.806;9.640;2022-11-15T05:57:04;6.00;79.70
71668;DHT22;59504;54.806;9.640;2022-11-15T05:59:06;6.00;79.70
71668;DHT22;59504;54.806;9.640;2022-11-15T06:01:09;6.10;79.80
71668;DHT22;59504;54.806;9.640;2022-11-15T06:03:10;6.00;79.80
71668;DHT22;59504;54.806;9.640;2022-11-15T06:05:11;5.90;79.70
71668;DHT22;59504;54.806;9.640;2022-11-15T06:07:11;6.00;79.80
71668;DHT22;59504;54.806;9.640;2022-11-15T06:09:12;5.90;79.80
71668;DHT22;59504;54.806;9.640;2022-11-15T06:11:12;5.90;79.80
71668;DHT22;59504;54.806;9.640;2022-11-15T06:13:13;5.90;79.80
71668;DHT22;59504;54.806;9.640;2022-11-15T06:15:14;5.90;79.90
71668;DHT22;59504;54.806;9.640;2022-11-15T06:17:14;5.90;79.90
71668;DHT22;59504;54.806;9.640;2022-11-15T06:19:15;5.80;79.80
71668;DHT22;59504;54.806;9.640;2022-11-15T06:21:16;5.80;79.80
71668;DHT22;59504;54.806;9.640;2022-11-15T06:23:17;5.80;79.90
71668;DHT22;59504;54.806;9.640;2022-11-15T06:25:18;5.80;79.90
71668;DHT22;59504;54.806;9.640;2022-11-15T06:27:18;5.80;79.80
71668;DHT22;59504;54.806;9.640;2022-11-15T06:29:19;5.80;79.90
71668;DHT22;59504;54.806;9.640;2022-11-15T06:31:19;5.80;79.90
71668;DHT22;59504;54.806;9.640;2022-11-15T06:33:20;5.80;79.90
71668;DHT22;59504;54.806;9.640;2022-11-15T06:35:21;5.70;79.90
71668;DHT22;59504;54.806;9.640;2022-11-15T06:37:21;5.80;80.00
71668;DHT22;59504;54.806;9.640;2022-11-15T06:39:22;5.70;80.00
71668;DHT22;59504;54.806;9.640;2022-11-15T06:41:23;5.90;80.10
71668;DHT22;59504;54.806;9.640;2022-11-15T06:43:23;5.80;80.00
71668;DHT22;59504;54.806;9.640;2022-11-15T06:45:24;5.70;79.90
71668;DHT22;59504;54.806;9.640;2022-11-15T06:47:25;5.70;80.60
71668;DHT22;59504;54.806;9.640;2022-11-15T06:49:25;5.70;79.90
71668;DHT22;59504;54.806;9.640;2022-11-15T06:51:26;5.70;79.90
71668;DHT22;59504;54.806;9.640;2022-11-15T06:53:28;5.70;79.90
71668;DHT22;59504;54.806;9.640;2022-11-15T06:55:28;5.70;80.00
71668;DHT22;59504;54.806;9.640;2022-11-15T06:57:29;5.70;80.00
71668;DHT22;59504;54.806;9.640;2022-11-15T06:59:30;5.70;80.00
71668;DHT22;59504;54.806;9.640;2022-11-15T07:01:30;5.70;80.00
71668;DHT22;59504;54.806;9.640;2022-11-15T07:03:31;5.70;80.10
71668;DHT22;59504;54.806;9.640;2022-11-15T07:05:34;5.70;80.10
71668;DHT22;59504;54.806;9.640;2022-11-15T07:07:35;5.70;80.10
71668;DHT22;59504;54.806;9.640;2022-11-15T07:09:35;5.70;80.20
71668;DHT22;59504;54.806;9.640;2022-11-15T07:11:36;5.70;80.30
71668;DHT22;59504;54.806;9.640;2022-11-15T07:13:36;5.70;80.60
71668;DHT22;59504;54.806;9.640;2022-11-15T07:15:37;5.70;80.70
71668;DHT22;59504;54.806;9.640;2022-11-15T07:17:38;5.70;80.80
71668;DHT22;59504;54.806;9.640;2022-11-15T07:19:38;5.70;81.00
71668;DHT22;59504;54.806;9.640;2022-11-15T07:21:39;5.70;80.90
71668;DHT22;59504;54.806;9.640;2022-11-15T07:23:40;5.80;81.00
71668;DHT22;59504;54.806;9.640;2022-11-15T07:25:40;5.80;81.10
71668;DHT22;59504;54.806;9.640;2022-11-15T07:27:42;5.80;81.30
71668;DHT22;59504;54.806;9.640;2022-11-15T07:29:42;5.80;81.20
71668;DHT22;59504;54.806;9.640;2022-11-15T07:31:43;5.90;81.40
71668;DHT22;59504;54.806;9.640;2022-11-15T07:33:44;5.90;81.50
71668;DHT22;59504;54.806;9.640;2022-11-15T07:35:44;5.90;81.50
71668;DHT22;59504;54.806;9.640;2022-11-15T07:39:55;6.00;81.70
71668;DHT22;59504;54.806;9.640;2022-11-15T07:41:56;6.20;81.80
71668;DHT22;59504;54.806;9.640;2022-11-15T07:44:16;6.10;81.80
71668;DHT22;59504;54.806;9.640;2022-11-15T07:46:17;6.10;81.80
71668;DHT22;59504;54.806;9.640;2022-11-15T07:48:18;6.20;81.90
71668;DHT22;59504;54.806;9.640;2022-11-15T07:50:19;6.30;81.90
71668;DHT22;59504;54.806;9.640;2022-11-15T07:52:19;6.20;81.80
71668;DHT22;59504;54.806;9.640;2022-11-15T07:54:20;6.30;81.90
71668;DHT22;59504;54.806;9.640;2022-11-15T07:56:21;6.30;81.90
71668;DHT22;59504;54.806;9.640;2022-11-15T07:58:22;6.30;81.90
71668;DHT22;59504;54.806;9.640;2022-11-15T08:00:22;6.30;81.90
71668;DHT22;59504;54.806;9.640;2022-11-15T08:02:23;6.40;82.00
71668;DHT22;59504;54.806;9.640;2022-11-15T08:04:24;6.60;82.10
71668;DHT22;59504;54.806;9.640;2022-11-15T08:06:25;6.60;82.10
71668;DHT22;59504;54.806;9.640;2022-11-15T08:08:25;6.50;82.00
71668;DHT22;59504;54.806;9.640;2022-11-15T08:10:27;6.50;82.20
71668;DHT22;59504;54.806;9.640;2022-11-15T08:12:28;6.60;82.20
71668;DHT22;59504;54.806;9.640;2022-11-15T08:14:29;6.70;82.30
71668;DHT22;59504;54.806;9.640;2022-11-15T08:16:29;6.60;82.10
71668;DHT22;59504;54.806;9.640;2022-11-15T08:18:30;6.80;82.30
71668;DHT22;59504;54.806;9.640;2022-11-15T08:20:34;6.70;82.20
71668;DHT22;59504;54.806;9.640;2022-11-15T08:22:35;6.70;82.20
71668;DHT22;59504;54.806;9.640;2022-11-15T08:24:36;6.80;82.20
71668;DHT22;59504;54.806;9.640;2022-11-15T08:26:37;6.80;82.20
71668;DHT22;59504;54.806;9.640;2022-11-15T08:28:38;6.90;82.30
71668;DHT22;59504;54.806;9.640;2022-11-15T08:30:41;7.00;82.50
71668;DHT22;59504;54.806;9.640;2022-11-15T08:32:42;6.90;82.50
71668;DHT22;59504;54.806;9.640;2022-11-15T08:34:42;7.00;82.60
71668;DHT22;59504;54.806;9.640;2022-11-15T08:36:43;7.00;82.60
71668;DHT22;59504;54.806;9.640;2022-11-15T08:38:44;7.00;82.60
71668;DHT22;59504;54.806;9.640;2022-11-15T08:40:45;7.10;82.70
71668;DHT22;59504;54.806;9.640;2022-11-15T08:42:47;7.10;82.60
71668;DHT22;59504;54.806;9.640;2022-11-15T08:44:47;7.30;82.80
71668;DHT22;59504;54.806;9.640;2022-11-15T08:46:48;7.20;82.80
71668;DHT22;59504;54.806;9.640;2022-11-15T08:48:49;7.20;82.70
71668;DHT22;59504;54.806;9.640;2022-11-15T08:50:53;7.30;82.80
71668;DHT22;59504;54.806;9.640;2022-11-15T08:52:54;7.30;82.80
71668;DHT22;59504;54.806;9.640;2022-11-15T08:54:55;7.40;82.80
71668;DHT22;59504;54.806;9.640;2022-11-15T08:56:56;7.40;82.70
71668;DHT22;59504;54.806;9.640;2022-11-15T08:58:56;7.40;82.70
71668;DHT22;59504;54.806;9.640;2022-11-15T09:00:57;7.50;82.70
71668;DHT22;59504;54.806;9.640;2022-11-15T09:02:58;7.50;82.70
71668;DHT22;59504;54.806;9.640;2022-11-15T09:04:59;7.50;82.80
71668;DHT22;59504;54.806;9.640;2022-11-15T09:07:00;7.60;82.80
71668;DHT22;59504;54.806;9.640;2022-11-15T09:09:01;7.60;82.80
71668;DHT22;59504;54.806;9.640;2022-11-15T09:11:22;7.60;82.80
71668;DHT22;59504;54.806;9.640;2022-11-15T09:13:28;7.70;82.80
71668;DHT22;59504;54.806;9.640;2022-11-15T09:15:48;7.70;82.80
71668;DHT22;59504;54.806;9.640;2022-11-15T09:17:49;7.80;82.80
71668;DHT22;59504;54.806;9.640;2022-11-15T09:20:10;7.80;82.90
71668;DHT22;59504;54.806;9.640;2022-11-15T09:22:31;7.80;82.90
71668;DHT22;59504;54.806;9.640;2022-11-15T09:24:54;8.00;83.10
71668;DHT22;59504;54.806;9.640;2022-11-15T09:27:15;8.00;83.10
71668;DHT22;59504;54.806;9.640;2022-11-15T09:29:16;8.10;83.20
71668;DHT22;59504;54.806;9.640;2022-11-15T09:31:17;8.00;83.10
71668;DHT22;59504;54.806;9.640;2022-11-15T09:33:18;8.10;83.20
71668;DHT22;59504;54.806;9.640;2022-11-15T09:35:18;8.10;83.20
71668;DHT22;59504;54.806;9.640;2022-11-15T09:37:19;8.30;83.30
71668;DHT22;59504;54.806;9.640;2022-11-15T09:39:19;8.20;83.70
71668;DHT22;59504;54.806;9.640;2022-11-15T09:41:37;8.20;83.20
71668;DHT22;59504;54.806;9.640;2022-11-15T09:48:25;8.30;83.10
71668;DHT22;59504;54.806;9.640;2022-11-15T09:52:43;8.40;83.10
71668;DHT22;59504;54.806;9.640;2022-11-15T09:54:48;8.50;83.10
71668;DHT22;59504;54.806;9.640;2022-11-15T09:56:50;8.50;83.00
71668;DHT22;59504;54.806;9.640;2022-11-15T09:59:00;8.50;83.10
71668;DHT22;59504;54.806;9.640;2022-11-15T10:01:08;8.60;83.10
71668;DHT22;59504;54.806;9.640;2022-11-15T10:05:47;8.60;83.00
71668;DHT22;59504;54.806;9.640;2022-11-15T10:12:24;8.70;82.90
71668;DHT22;59504;54.806;9.640;2022-11-15T10:14:28;8.70;82.70
71668;DHT22;59504;54.806;9.640;2022-11-15T10:16:45;8.80;82.70
71668;DHT22;59504;54.806;9.640;2022-11-15T10:21:20;8.80;82.60
71668;DHT22;59504;54.806;9.640;2022-11-15T10:23:23;8.90;82.60
71668;DHT22;59504;54.806;9.640;2022-11-15T10:27:26;8.90;82.60
71668;DHT22;59504;54.806;9.640;2022-11-15T10:29:26;8.90;82.60
71668;DHT22;59504;54.806;9.640;2022-11-15T10:31:29;9.00;82.60
71668;DHT22;59504;54.806;9.640;2022-11-15T10:33:33;9.00;82.60
71668;DHT22;59504;54.806;9.640;2022-11-15T10:35:34;9.00;82.50
71668;DHT22;59504;54.806;9.640;2022-11-15T10:37:34;9.10;82.50
71668;DHT22;59504;54.806;9.640;2022-11-15T10:39:35;9.10;82.50
71668;DHT22;59504;54.806;9.640;2022-11-15T10:41:38;9.10;82.40
71668;DHT22;59504;54.806;9.640;2022-11-15T10:43:39;9.10;82.30
71668;DHT22;59504;54.806;9.640;2022-11-15T10:45:40;9.20;82.40
71668;DHT22;59504;54.806;9.640;2022-11-15T10:47:41;9.20;82.20
71668;DHT22;59504;54.806;9.640;2022-11-15T10:50:26;9.20;82.10
71668;DHT22;59504;54.806;9.640;2022-11-15T10:52:20;9.20;82.10
71668;DHT22;59504;54.806;9.640;2022-11-15T10:54:41;9.20;81.90
71668;DHT22;59504;54.806;9.640;2022-11-15T10:56:42;9.30;81.90
71668;DHT22;59504;54.806;9.640;2022-11-15T10:58:50;9.30;81.90
71668;DHT22;59504;54.806;9.640;2022-11-15T11:00:52;9.40;82.00
71668;DHT22;59504;54.806;9.640;2022-11-15T11:04:58;9.40;81.90
71668;DHT22;59504;54.806;9.640;2022-11-15T11:06:59;9.50;82.00
71668;DHT22;59504;54.806;9.640;2022-11-15T11:09:02;9.40;81.80
71668;DHT22;59504;54.806;9.640;2022-11-15T11:11:04;9.40;81.80
71668;DHT22;59504;54.806;9.640;2022-11-15T11:13:26;9.40;81.80
71668;DHT22;59504;54.806;9.640;2022-11-15T11:15:27;9.40;81.70
71668;DHT22;59504;54.806;9.640;2022-11-15T11:27:22;9.60;81.70
71668;DHT22;59504;54.806;9.640;2022-11-15T11:32:07;9.60;81.60
71668;DHT22;59504;54.806;9.640;2022-11-15T11:34:40;9.60;81.50
71668;DHT22;59504;54.806;9.640;2022-11-15T11:38:51;9.70;81.50
71668;DHT22;59504;54.806;9.640;2022-11-15T11:47:43;9.70;81.10
71668;DHT22;59504;54.806;9.640;2022-11-15T11:49:51;9.70;81.10
71668;DHT22;59504;54.806;9.640;2022-11-15T11:54:12;9.80;81.10
71668;DHT22;59504;54.806;9.640;2022-11-15T11:56:27;9.80;80.90
71668;DHT22;59504;54.806;9.640;2022-11-15T11:58:41;9.80;80.90
71668;DHT22;59504;54.806;9.640;2022-11-15T12:01:02;9.90;80.90
71668;DHT22;59504;54.806;9.640;2022-11-15T12:05:13;9.90;80.80
71668;DHT22;59504;54.806;9.640;2022-11-15T12:07:29;9.80;80.70
71668;DHT22;59504;54.806;9.640;2022-11-15T12:09:49;9.80;80.60
71668;DHT22;59504;54.806;9.640;2022-11-15T12:13:59;9.90;80.60
71668;DHT22;59504;54.806;9.640;2022-11-15T12:16:49;9.90;80.50
71668;DHT22;59504;54.806;9.640;2022-11-15T12:18:51;9.90;80.40
71668;DHT22;59504;54.806;9.640;2022-11-15T12:23:37;9.90;80.30
71668;DHT22;59504;54.806;9.640;2022-11-15T12:25:47;9.90;80.30
71668;DHT22;59504;54.806;9.640;2022-11-15T12:28:25;9.90;80.30
71668;DHT22;59504;54.806;9.640;2022-11-15T12:30:19;9.90;80.20
71668;DHT22;59504;54.806;9.640;2022-11-15T12:32:35;9.90;80.10
71668;DHT22;59504;54.806;9.640;2022-11-15T12:34:43;9.90;80.00
71668;DHT22;59504;54.806;9.640;2022-11-15T12:36:46;9.90;80.00
71668;DHT22;59504;54.806;9.640;2022-11-15T12:41:15;9.90;79.90
71668;DHT22;59504;54.806;9.640;2022-11-15T12:45:35;10.00;80.00
71668;DHT22;59504;54.806;9.640;2022-11-15T12:47:37;9.90;80.60
71668;DHT22;59504;54.806;9.640;2022-11-15T12:53:48;9.90;79.90
71668;DHT22;59504;54.806;9.640;2022-11-15T12:58:28;9.90;80.00
71668;DHT22;59504;54.806;9.640;2022-11-15T13:00:39;9.90;80.00
71668;DHT22;59504;54.806;9.640;2022-11-15T13:02:44;9.90;79.90
71668;DHT22;59504;54.806;9.640;2022-11-15T13:04:45;9.90;79.90
71668;DHT22;59504;54.806;9.640;2022-11-15T13:07:07;9.90;79.80
71668;DHT22;59504;54.806;9.640;2022-11-15T13:11:49;10.00;79.70
71668;DHT22;59504;54.806;9.640;2022-11-15T13:13:50;10.00;79.70
71668;DHT22;59504;54.806;9.640;2022-11-15T13:15:58;10.00;79.60
71668;DHT22;59504;54.806;9.640;2022-11-15T13:20:31;10.00;79.50
71668;DHT22;59504;54.806;9.640;2022-11-15T13:22:42;10.00;79.50
71668;DHT22;59504;54.806;9.640;2022-11-15T13:24:53;10.00;79.50
71668;DHT22;59504;54.806;9.640;2022-11-15T13:26:54;10.00;79.40
71668;DHT22;59504;54.806;9.640;2022-11-15T13:28:55;10.00;79.50
71668;DHT22;59504;54.806;9.640;2022-11-15T13:30:59;9.90;79.40
71668;DHT22;59504;54.806;9.640;2022-11-15T13:33:13;9.90;79.60
71668;DHT22;59504;54.806;9.640;2022-11-15T13:35:26;9.90;79.60
71668;DHT22;59504;54.806;9.640;2022-11-15T13:37:29;10.00;79.70
71668;DHT22;59504;54.806;9.640;2022-11-15T13:39:33;10.10;79.80
71668;DHT22;59504;54.806;9.640;2022-11-15T13:41:36;10.00;79.80
71668;DHT22;59504;54.806;9.640;2022-11-15T13:43:45;10.00;79.80
71668;DHT22;59504;54.806;9.640;2022-11-15T13:48:04;10.00;80.00
71668;DHT22;59504;54.806;9.640;2022-11-15T13:50:11;10.00;80.00
71668;DHT22;59504;54.806;9.640;2022-11-15T13:52:14;10.00;80.00
71668;DHT22;59504;54.806;9.640;2022-11-15T13:54:25;10.00;80.10
71668;DHT22;59504;54.806;9.640;2022-11-15T13:56:28;10.00;80.10
71668;DHT22;59504;54.806;9.640;2022-11-15T13:58:31;10.00;80.10
71668;DHT22;59504;54.806;9.640;2022-11-15T14:00:35;10.10;80.20
71668;DHT22;59504;54.806;9.640;2022-11-15T14:02:37;10.00;80.40
71668;DHT22;59504;54.806;9.640;2022-11-15T14:04:42;10.00;80.30
71668;DHT22;59504;54.806;9.640;2022-11-15T14:06:48;10.00;80.30
71668;DHT22;59504;54.806;9.640;2022-11-15T14:11:19;10.00;80.50
71668;DHT22;59504;54.806;9.640;2022-11-15T14:13:28;10.00;81.20
71668;DHT22;59504;54.806;9.640;2022-11-15T14:15:32;9.90;80.60
71668;DHT22;59504;54.806;9.640;2022-11-15T14:17:36;10.00;80.70
71668;DHT22;59504;54.806;9.640;2022-11-15T14:19:38;9.90;81.60
71668;DHT22;59504;54.806;9.640;2022-11-15T14:24:30;10.00;80.90
71668;DHT22;59504;54.806;9.640;2022-11-15T14:26:33;10.10;81.10
71668;DHT22;59504;54.806;9.640;2022-11-15T14:28:34;9.90;81.20
71668;DHT22;59504;54.806;9.640;2022-11-15T14:30:39;9.90;81.10
71668;DHT22;59504;54.806;9.640;2022-11-15T14:32:46;10.00;81.50
71668;DHT22;59504;54.806;9.640;2022-11-15T14:35:00;9.80;81.90
71668;DHT22;59504;54.806;9.640;2022-11-15T14:37:01;9.80;82.10
71668;DHT22;59504;54.806;9.640;2022-11-15T14:39:02;9.80;82.10
71668;DHT22;59504;54.806;9.640;2022-11-15T14:41:05;9.90;82.00
71668;DHT22;59504;54.806;9.640;2022-11-15T14:43:11;9.90;82.20
71668;DHT22;59504;54.806;9.640;2022-11-15T14:47:14;9.90;81.80
71668;DHT22;59504;54.806;9.640;2022-11-15T14:49:15;9.80;81.80
71668;DHT22;59504;54.806;9.640;2022-11-15T14:51:17;9.90;81.80
71668;DHT22;59504;54.806;9.640;2022-11-15T14:53:18;10.00;81.70
71668;DHT22;59504;54.806;9.640;2022-11-15T14:55:27;10.10;81.80
71668;DHT22;59504;54.806;9.640;2022-11-15T14:57:29;10.10;81.80
71668;DHT22;59504;54.806;9.640;2022-11-15T14:59:30;10.00;81.70
71668;DHT22;59504;54.806;9.640;2022-11-15T15:01:30;10.10;81.80
71668;DHT22;59504;54.806;9.640;2022-11-15T15:03:32;10.10;81.80
71668;DHT22;59504;54.806;9.640;2022-11-15T15:05:35;10.00;81.70
71668;DHT22;59504;54.806;9.640;2022-11-15T15:07:36;10.10;81.70
71668;DHT22;59504;54.806;9.640;2022-11-15T15:09:37;10.00;81.70
71668;DHT22;59504;54.806;9.640;2022-11-15T15:11:38;10.00;81.70
71668;DHT22;59504;54.806;9.640;2022-11-15T15:13:39;10.10;81.70
71668;DHT22;59504;54.806;9.640;2022-11-15T15:15:40;10.00;81.60
71668;DHT22;59504;54.806;9.640;2022-11-15T15:17:41;10.10;81.70
71668;DHT22;59504;54.806;9.640;2022-11-15T15:19:42;10.10;81.60
71668;DHT22;59504;54.806;9.640;2022-11-15T15:21:44;10.00;81.50
71668;DHT22;59504;54.806;9.640;2022-11-15T15:23:44;10.10;81.60
71668;DHT22;59504;54.806;9.640;2022-11-15T15:25:46;10.00;81.50